Weather at Airdrie Aerodrome

Public forecast

Using degrees Celsius for public forecast. Weather courtesy of forecast.io.

Closest aviation weather report (METAR) to Airdrie Aerodrome

Closest report is Calgary International Airport, 9.2 nm (17.0 km) SSW.

2024/05/28 22:00 (retrieved 23 minutes ago)

CYYC 282200Z 17015KT 150V220 15SM BKN130 BKN240 BKN350 23/07 A2983 RMK AC5CC1CI1 SLP101 DENSITY ALT 5400FT

Closest aviation forecast (TAF) to Airdrie Aerodrome

Closest forecast is Calgary International Airport, 9.2 nm (17.0 km) SSW.

2024/05/28 21:00 (retrieved 1 hour ago)

TAF CYYC 282047Z 2821/2918 15010G20KT P6SM FEW120 BKN240 FM282200 19015G25KT P6SM BKN120 FM290000 19015G25KT P6SM BKN100 TEMPO 2900/2902 VRB25G40KT P6SM -SHRA VCTS BKN080CB FM290200 24012KT P6SM FEW080 SCT140 BKN180 TEMPO 2902/2904 P6SM VCSH FM290400 20010KT P6SM FEW120 BKN200 FM290900 22008KT P6SM FEW080 SCT220 BECMG 2910/2912 28015KT BECMG 2914/2916 28018G28KT RMK NXT FCST BY 290000Z